Flugplatz Böhlen

Für EDOE sind keine METAR/TAF Berichte vorhanden.
Es werden die Flugwettermeldungen vom Flugplatz Leipzig Halle in 24 km Entfernung angezeigt.

Bericht für EDDP

vom 31.03. um 22:50 UTC

Wind 4 kt aus 140°

Sichtweite 10 km oder mehr

gute Sicht, keine Wolken < 5000 ft, keine CB, keine Wettererscheinungen (CAVOK)

Temperatur -1.0°C

Taupunkt -9.0°C

Luftfeuchtigkeit 54%

Luftdruck 1026 hPa

keine wesentliche Wetteränderung innerhalb den nächsten 2 Stunden zu erwarten

EDDP 312250Z 14004KT CAVOK M01/M09 Q1026 NOSIG

Prognose für EDDP

vom 31.03. um 17:00 UTC

Am 31.03. zwischen 18:00 UTC und 20:00 UTC

Wind 4 kt aus 40°

Sichtweite 10 km oder mehr

keine signifikanten Wettererscheinungen

keine Wolken


Am 31.03. zwischen 20:00 und 22:00 UTC übergehend zu

Wind 5 kt aus 200°

Sichtweite 10 km oder mehr

keine signifikanten Wettererscheinungen

keine Wolken


Zwischen 06:00 und 08:00 UTC übergehend zu

Wind 7 kt aus 260°

Sichtweite 10 km oder mehr

keine signifikanten Wettererscheinungen

keine Wolken

TAF EDDP 311700Z 3118/0118 04004KT CAVOK BECMG 3120/3122 20005KT BECMG 0106/0108 26007KT
Impressum